Norfolk, Virginia
Traffic Map
Current Weather Conditions
Norfolk, Virginia
Few Clouds
Few Clouds
22°
Feels Like: 22°
Wind Chill: 22° Ceiling: Unl
Heat Index: 22° Visibility: 10mi
Dew Point: 17° Wind: 0mph
Humidity: 73% Direction: ° ()
Pressure: 30.14in Gusts: 0mph
Raw Report DataKORF 300251Z AUTO 00000KT 10SM FEW070 22/17 A3014 RMK AO2 SLP206 T02220172 53002 TSNO
Traffic Incident Summary
Active as of:
Severity:
Category:
InformationThere was an issue retrieving the traffic information for this location. Please try a different location or try again shortly.
Advertisements
Track Severe Weather on mobile